createdAt,value
2023-01-17T00:01:27.535Z,97382.02
2023-01-17T00:06:52.854Z,97378.64
2023-01-17T00:12:03.787Z,97368.73
2023-01-17T00:17:11.511Z,97369.55
2023-01-17T00:22:42.323Z,97377.23
2023-01-17T00:27:51.033Z,97380.77
2023-01-17T00:32:58.680Z,97376.54
2023-01-17T00:38:08.439Z,97368.18
2023-01-17T00:43:35.164Z,97364.93
2023-01-17T00:49:01.249Z,97365.83
2023-01-17T00:54:29.743Z,97365.44
2023-01-17T00:59:59.974Z,97363.34
2023-01-17T01:05:25.801Z,97364.60
2023-01-17T01:10:51.478Z,97359.34
2023-01-17T01:16:18.767Z,97362.55
2023-01-17T01:21:43.470Z,97371.55
2023-01-17T01:27:08.361Z,97369.35
2023-01-17T01:32:32.835Z,97366.09
2023-01-17T01:37:39.910Z,97368.98
2023-01-17T01:42:53.612Z,97369.48
2023-01-17T01:48:03.523Z,97371.85
2023-01-17T01:53:11.570Z,97365.19
2023-01-17T01:58:28.479Z,97356.65
2023-01-17T02:03:37.457Z,97349.10
2023-01-17T02:08:44.976Z,97340.74
2023-01-17T02:13:51.922Z,97346.80
2023-01-17T02:19:13.786Z,97336.67
2023-01-17T02:24:48.505Z,97336.08
2023-01-17T02:30:33.016Z,97342.95
2023-01-17T02:35:50.194Z,97338.33
2023-01-17T02:41:02.615Z,97332.11
2023-01-17T02:46:09.913Z,97337.58
2023-01-17T02:51:44.375Z,97329.20
2023-01-17T02:57:04.702Z,97313.47
2023-01-17T03:02:31.957Z,97309.89
2023-01-17T03:07:41.829Z,97316.08
2023-01-17T03:12:48.919Z,97328.02
2023-01-17T03:17:58.159Z,97331.52
2023-01-17T03:23:05.892Z,97335.60
2023-01-17T03:28:12.967Z,97343.61
2023-01-17T03:33:20.858Z,97347.05
2023-01-17T03:38:29.527Z,97349.38
2023-01-17T03:43:37.909Z,97338.80
2023-01-17T03:48:47.846Z,97343.45
2023-01-17T03:53:55.681Z,97346.55
2023-01-17T03:59:03.269Z,97349.86
2023-01-17T04:04:10.442Z,97359.64
2023-01-17T04:09:17.608Z,97345.98
2023-01-17T04:14:24.702Z,97355.17
2023-01-17T04:19:33.081Z,97372.52
2023-01-17T04:24:40.707Z,97381.42
2023-01-17T04:29:47.773Z,97377.34
2023-01-17T04:34:54.778Z,97369.67
2023-01-17T04:40:01.864Z,97371.79
2023-01-17T04:45:10.643Z,97372.81
2023-01-17T04:50:18.299Z,97374.52
2023-01-17T04:55:25.368Z,97378.51
2023-01-17T05:00:32.455Z,97380.67
2023-01-17T05:05:39.407Z,97380.25
2023-01-17T05:10:48.292Z,97365.20
2023-01-17T05:15:55.568Z,97369.03
2023-01-17T05:21:05.492Z,97359.48
2023-01-17T05:26:13.086Z,97348.11
2023-01-17T05:31:20.493Z,97349.27
2023-01-17T05:36:28.190Z,97348.47
2023-01-17T05:41:35.220Z,97353.65
2023-01-17T05:46:42.489Z,97351.95
2023-01-17T05:51:49.593Z,97353.48
2023-01-17T05:56:56.511Z,97360.65
2023-01-17T06:02:03.725Z,97360.75
2023-01-17T06:07:10.603Z,97370.11
2023-01-17T06:12:17.740Z,97379.90
2023-01-17T06:17:24.896Z,97387.50
2023-01-17T06:22:32.280Z,97393.36
2023-01-17T06:27:39.225Z,97403.98
2023-01-17T06:32:46.207Z,97414.15
2023-01-17T06:37:55.605Z,97414.56
2023-01-17T06:43:04.838Z,97419.21
2023-01-17T06:48:12.368Z,97419.48
2023-01-17T06:53:19.750Z,97424.50
2023-01-17T06:58:27.321Z,97429.35
2023-01-17T07:03:34.264Z,97440.59
2023-01-17T07:08:41.401Z,97446.06
2023-01-17T07:13:48.436Z,97451.45
2023-01-17T07:18:58.200Z,97461.07
2023-01-17T07:24:05.631Z,97464.62
2023-01-17T07:29:12.603Z,97467.22
2023-01-17T07:34:19.981Z,97473.38
2023-01-17T07:39:27.007Z,97477.80
2023-01-17T07:44:34.080Z,97491.14
2023-01-17T07:49:41.196Z,97488.63
2023-01-17T07:54:48.170Z,97486.96
2023-01-17T07:59:55.402Z,97493.59
2023-01-17T08:05:02.546Z,97496.84
2023-01-17T08:10:13.235Z,97502.28
2023-01-17T08:15:20.711Z,97508.31
2023-01-17T08:20:28.410Z,97516.30
2023-01-17T08:25:35.792Z,97524.29
2023-01-17T08:30:42.878Z,97520.75
2023-01-17T08:35:56.560Z,97527.14
2023-01-17T08:41:04.392Z,97534.77
2023-01-17T08:46:11.507Z,97537.19
2023-01-17T08:51:18.552Z,97540.68
2023-01-17T08:56:27.129Z,97540.04
2023-01-17T09:01:42.122Z,97544.77
2023-01-17T09:06:49.328Z,97553.15
2023-01-17T09:11:57.145Z,97558.20
2023-01-17T09:17:05.803Z,97563.41
2023-01-17T09:22:13.034Z,97567.53
2023-01-17T09:27:20.883Z,97564.89
2023-01-17T09:32:27.904Z,97563.65
2023-01-17T09:37:34.812Z,97555.82
2023-01-17T09:42:43.264Z,97551.64
2023-01-17T09:47:52.569Z,97555.02
2023-01-17T09:53:02.788Z,97553.86
2023-01-17T09:58:14.222Z,97558.55
2023-01-17T10:03:42.883Z,97552.36
2023-01-17T10:09:20.055Z,97544.05
2023-01-17T10:14:45.455Z,97545.19
2023-01-17T10:20:09.846Z,97552.29
2023-01-17T10:25:30.261Z,97555.21
2023-01-17T10:30:46.285Z,97553.34
2023-01-17T10:35:59.500Z,97564.92
2023-01-17T10:41:15.825Z,97570.88
2023-01-17T10:46:28.766Z,97568.13
2023-01-17T10:52:01.340Z,97573.09
2023-01-17T10:57:16.058Z,97573.40
2023-01-17T11:02:29.993Z,97572.40
2023-01-17T11:07:39.976Z,97577.02
2023-01-17T11:12:48.620Z,97575.30
2023-01-17T11:18:05.473Z,97570.64
2023-01-17T11:23:17.179Z,97568.45
2023-01-17T11:28:30.516Z,97561.45
2023-01-17T11:33:47.983Z,97568.83
2023-01-17T11:39:04.009Z,97570.59
2023-01-17T11:44:27.117Z,97565.14
2023-01-17T11:49:34.218Z,97567.06
2023-01-17T11:54:45.750Z,97570.73
2023-01-17T11:59:54.724Z,97579.08
2023-01-17T12:05:18.691Z,97573.40
2023-01-17T12:10:32.466Z,97570.83
2023-01-17T12:15:55.068Z,97570.73
2023-01-17T12:21:15.697Z,97568.48
2023-01-17T12:26:36.064Z,97553.58
2023-01-17T12:31:56.113Z,97549.11
2023-01-17T12:37:09.668Z,97547.77
2023-01-17T12:42:22.539Z,97555.73
2023-01-17T12:47:30.335Z,97555.23
2023-01-17T12:52:50.077Z,97552.98
2023-01-17T12:58:01.362Z,97549.95
2023-01-17T13:03:17.669Z,97552.00
2023-01-17T13:08:30.266Z,97555.56
2023-01-17T13:13:39.349Z,97557.02
2023-01-17T13:18:49.112Z,97562.42
2023-01-17T13:24:24.115Z,97573.20
2023-01-17T13:29:42.480Z,97582.63
2023-01-17T13:35:07.477Z,97601.76
2023-01-17T13:40:37.208Z,97618.60
2023-01-17T13:45:52.515Z,97635.06
2023-01-17T13:51:00.804Z,97655.20
2023-01-17T13:56:14.586Z,97658.83
2023-01-17T14:01:53.147Z,97654.33
2023-01-17T14:07:17.472Z,97650.77
2023-01-17T14:12:32.285Z,97665.20
2023-01-17T14:17:55.997Z,97679.20
2023-01-17T14:23:06.325Z,97699.09
2023-01-17T14:28:30.417Z,97716.27
2023-01-17T14:33:40.933Z,97728.89
2023-01-17T14:38:47.928Z,97752.96
2023-01-17T14:43:55.597Z,97769.33
2023-01-17T14:49:08.304Z,97770.41
2023-01-17T14:54:23.246Z,97769.92
2023-01-17T14:59:30.293Z,97776.73
2023-01-17T15:04:39.759Z,97781.58
2023-01-17T15:09:47.368Z,97783.29
2023-01-17T15:14:58.562Z,97790.30
2023-01-17T15:20:09.894Z,97796.11
2023-01-17T15:25:19.235Z,97796.14
2023-01-17T15:30:27.238Z,97792.40
2023-01-17T15:35:34.341Z,97784.30
2023-01-17T15:40:46.353Z,97782.84
2023-01-17T15:45:59.003Z,97783.61
2023-01-17T15:51:14.483Z,97784.23
2023-01-17T15:56:32.967Z,97780.00
2023-01-17T16:01:41.704Z,97775.61
2023-01-17T16:06:54.942Z,97768.83
2023-01-17T16:12:06.123Z,97770.88
2023-01-17T16:17:20.975Z,97766.11
2023-01-17T16:22:36.562Z,97762.02
2023-01-17T16:27:49.422Z,97750.77
2023-01-17T16:33:15.031Z,97752.60
2023-01-17T16:38:29.647Z,97754.33
2023-01-17T16:43:48.401Z,97752.98
2023-01-17T16:49:03.402Z,97757.02
2023-01-17T16:54:14.455Z,97751.30
2023-01-17T16:59:26.083Z,97749.05
2023-01-17T17:04:35.567Z,97752.95
2023-01-17T17:09:43.886Z,97754.30
2023-01-17T17:14:51.813Z,97764.12
2023-01-17T17:19:59.168Z,97770.80
2023-01-17T17:25:08.635Z,97776.90
2023-01-17T17:30:20.808Z,97769.55
2023-01-17T17:35:42.265Z,97769.17
2023-01-17T17:41:09.106Z,97774.94
2023-01-17T17:46:21.090Z,97780.13
2023-01-17T17:51:34.169Z,97781.85
2023-01-17T17:56:47.675Z,97794.91
2023-01-17T18:02:06.213Z,97802.50
2023-01-17T18:07:19.681Z,97802.42
2023-01-17T18:12:26.919Z,97809.79
2023-01-17T18:17:34.321Z,97814.17
2023-01-17T18:22:46.507Z,97821.59
2023-01-17T18:28:00.310Z,97829.03
2023-01-17T18:38:48.248Z,97829.17
2023-01-17T18:43:57.520Z,97828.23
2023-01-17T18:49:06.258Z,97840.85
2023-01-17T18:54:34.903Z,97857.35
2023-01-17T18:59:43.256Z,97863.45
2023-01-17T19:04:50.208Z,97852.80
2023-01-17T19:09:57.148Z,97849.31
2023-01-17T19:15:08.411Z,97863.10
2023-01-17T19:20:17.400Z,97882.14
2023-01-17T19:25:30.803Z,97869.20
2023-01-17T19:30:40.981Z,97857.06
2023-01-17T19:35:48.289Z,97871.10
2023-01-17T19:40:55.358Z,97868.86
2023-01-17T19:46:04.895Z,97853.13
2023-01-17T19:51:17.930Z,97870.90
2023-01-17T19:56:27.794Z,97875.73
2023-01-17T20:01:39.997Z,97852.85
2023-01-17T20:06:49.154Z,97842.25
2023-01-17T20:12:04.508Z,97836.22
2023-01-17T20:17:18.637Z,97842.09
2023-01-17T20:22:30.379Z,97850.96
2023-01-17T20:27:46.887Z,97861.98
2023-01-17T20:32:59.937Z,97859.33
2023-01-17T20:38:12.149Z,97865.89
2023-01-17T20:43:27.129Z,97871.09
2023-01-17T20:48:56.338Z,97866.02
2023-01-17T20:54:08.465Z,97865.29
2023-01-17T20:59:26.693Z,97871.08
2023-01-17T21:04:40.586Z,97877.06
2023-01-17T21:09:51.914Z,97877.31
2023-01-17T21:15:04.894Z,97864.40
2023-01-17T21:20:16.613Z,97854.84
2023-01-17T21:25:23.402Z,97859.04
2023-01-17T21:30:30.351Z,97854.58
2023-01-17T21:35:37.353Z,97839.67
2023-01-17T21:40:45.259Z,97829.94
2023-01-17T21:45:53.579Z,97826.64
2023-01-17T21:51:06.132Z,97815.86
2023-01-17T21:56:33.209Z,97828.54
2023-01-17T22:01:40.393Z,97849.61
2023-01-17T22:06:47.471Z,97850.51
2023-01-17T22:11:54.522Z,97843.52
2023-01-17T22:17:01.550Z,97830.60
2023-01-17T22:22:08.577Z,97822.93
2023-01-17T22:27:15.429Z,97826.42
2023-01-17T22:32:22.521Z,97822.61
2023-01-17T22:37:29.459Z,97826.17
2023-01-17T22:42:36.857Z,97828.61
2023-01-17T22:47:43.742Z,97823.52
2023-01-17T22:52:50.711Z,97817.70
2023-01-17T22:57:57.554Z,97824.58
2023-01-17T23:03:06.378Z,97828.69
2023-01-17T23:08:13.353Z,97818.73
2023-01-17T23:13:20.301Z,97802.20
2023-01-17T23:18:44.508Z,97787.60
2023-01-17T23:23:51.597Z,97792.64
2023-01-17T23:29:00.303Z,97804.95
2023-01-17T23:34:07.489Z,97808.64
2023-01-17T23:39:14.667Z,97806.80
2023-01-17T23:44:21.609Z,97779.88
2023-01-17T23:49:29.695Z,97772.41
2023-01-17T23:54:38.694Z,97770.70
2023-01-17T23:59:45.612Z,97762.76
